createdAt,value
2019-05-05T00:02:34.257Z,5.28
2019-05-05T00:05:19.515Z,5.32
2019-05-05T00:07:55.468Z,5.25
2019-05-05T00:10:34.757Z,5.21
2019-05-05T00:13:15.015Z,5.13
2019-05-05T00:15:59.353Z,5.09
2019-05-05T00:18:34.681Z,5.06
2019-05-05T00:21:09.706Z,5.04
2019-05-05T00:23:45.156Z,4.99
2019-05-05T00:26:21.646Z,4.93
2019-05-05T00:28:57.940Z,4.92
2019-05-05T00:31:34.895Z,4.91
2019-05-05T00:34:10.806Z,4.83
2019-05-05T00:36:46.474Z,4.81
2019-05-05T00:39:21.492Z,4.78
2019-05-05T00:41:56.515Z,4.78
2019-05-05T00:44:32.443Z,4.76
2019-05-05T00:47:19.067Z,4.72
2019-05-05T00:49:56.328Z,4.72
2019-05-05T00:52:31.308Z,4.68
2019-05-05T00:55:07.980Z,4.63
2019-05-05T00:57:45.342Z,4.58
2019-05-05T01:00:24.516Z,4.57
2019-05-05T01:02:59.830Z,4.56
2019-05-05T01:05:36.529Z,4.54
2019-05-05T01:08:14.408Z,4.55
2019-05-05T01:10:49.865Z,4.52
2019-05-05T01:13:24.942Z,4.51
2019-05-05T01:16:00.078Z,4.49
2019-05-05T01:18:35.302Z,4.47
2019-05-05T01:21:10.450Z,4.42
2019-05-05T01:23:45.696Z,4.39
2019-05-05T01:26:20.926Z,4.35
2019-05-05T01:28:56.375Z,4.37
2019-05-05T01:31:34.648Z,4.33
2019-05-05T01:34:18.901Z,4.30
2019-05-05T01:36:55.663Z,4.29
2019-05-05T01:39:35.431Z,4.23
2019-05-05T01:42:17.389Z,4.19
2019-05-05T01:44:52.694Z,4.18
2019-05-05T01:47:27.723Z,4.17
2019-05-05T01:50:15.194Z,4.14
2019-05-05T01:52:39.652Z,4.12
2019-05-05T01:55:14.951Z,4.13
2019-05-05T01:57:51.484Z,4.08
2019-05-05T02:00:26.833Z,4.07
2019-05-05T02:03:02.136Z,4.08
2019-05-05T02:05:38.173Z,4.08
2019-05-05T02:08:15.308Z,4.06
2019-05-05T02:10:50.592Z,4.07
2019-05-05T02:13:25.714Z,4.07
2019-05-05T02:16:01.226Z,4.04
2019-05-05T02:18:38.075Z,4.06
2019-05-05T02:21:14.263Z,4.04
2019-05-05T02:23:50.594Z,4.05
2019-05-05T02:26:25.646Z,4.03
2019-05-05T02:29:04.756Z,3.99
2019-05-05T02:31:41.049Z,3.99
2019-05-05T02:34:16.559Z,3.98
2019-05-05T02:36:52.728Z,3.97
2019-05-05T02:39:27.752Z,3.95
2019-05-05T02:42:05.750Z,3.91
2019-05-05T02:44:40.256Z,3.91
2019-05-05T02:47:19.991Z,3.91
2019-05-05T02:49:57.044Z,3.92
2019-05-05T02:52:34.689Z,3.91
2019-05-05T02:55:11.371Z,3.87
2019-05-05T02:57:47.803Z,3.87
2019-05-05T03:00:24.761Z,3.82
2019-05-05T03:03:01.502Z,3.83
2019-05-05T03:05:36.535Z,3.78
2019-05-05T03:08:13.740Z,3.78
2019-05-05T03:10:48.538Z,3.73
2019-05-05T03:13:24.401Z,3.72
2019-05-05T03:16:15.977Z,3.70
2019-05-05T03:18:52.126Z,3.68
2019-05-05T03:21:27.697Z,3.69
2019-05-05T03:24:03.729Z,3.74
2019-05-05T03:26:41.464Z,3.75
2019-05-05T03:29:18.496Z,3.73
2019-05-05T03:31:56.353Z,3.63
2019-05-05T03:34:31.626Z,3.68
2019-05-05T03:37:07.196Z,3.68
2019-05-05T03:39:44.535Z,3.68
2019-05-05T03:42:22.038Z,3.67
2019-05-05T03:44:59.877Z,3.66
2019-05-05T03:47:37.242Z,3.63
2019-05-05T03:50:14.480Z,3.66
2019-05-05T03:52:49.649Z,3.65
2019-05-05T03:55:25.961Z,3.66
2019-05-05T03:58:01.050Z,3.68
2019-05-05T04:00:54.935Z,3.73
2019-05-05T04:03:31.050Z,3.79
2019-05-05T04:06:08.167Z,3.82
2019-05-05T04:08:45.359Z,3.82
2019-05-05T04:11:20.733Z,3.84
2019-05-05T04:13:57.084Z,3.83
2019-05-05T04:16:37.591Z,3.88
2019-05-05T04:19:14.272Z,3.88
2019-05-05T04:21:49.301Z,3.92
2019-05-05T04:24:24.446Z,3.97
2019-05-05T04:27:00.433Z,4.02
2019-05-05T04:29:35.747Z,4.04
2019-05-05T04:32:10.782Z,4.05
2019-05-05T04:34:46.154Z,4.07
2019-05-05T04:37:23.944Z,4.14
2019-05-05T04:39:59.197Z,4.18
2019-05-05T04:42:34.256Z,4.23
2019-05-05T04:45:09.879Z,4.29
2019-05-05T04:47:51.084Z,4.33
2019-05-05T04:50:45.302Z,4.39
2019-05-05T04:53:23.985Z,4.46
2019-05-05T04:55:59.933Z,4.53
2019-05-05T04:58:35.268Z,4.67
2019-05-05T05:01:10.626Z,4.87
2019-05-05T05:03:54.297Z,5.15
2019-05-05T05:06:31.355Z,5.10
2019-05-05T05:09:07.352Z,5.10
2019-05-05T05:11:44.311Z,5.18
2019-05-05T05:14:21.056Z,5.20
2019-05-05T05:16:57.901Z,5.23
2019-05-05T05:19:33.572Z,5.27
2019-05-05T05:22:09.770Z,5.33
2019-05-05T05:24:45.850Z,5.40
2019-05-05T05:27:20.878Z,5.46
2019-05-05T05:29:56.025Z,5.56
2019-05-05T05:32:33.843Z,5.63
2019-05-05T05:35:08.777Z,5.68
2019-05-05T05:37:46.161Z,5.73
2019-05-05T05:40:26.634Z,5.81
2019-05-05T05:43:04.695Z,5.90
2019-05-05T05:45:44.649Z,5.96
2019-05-05T05:48:31.131Z,6.13
2019-05-05T05:51:11.406Z,6.20
2019-05-05T05:53:46.715Z,6.29
2019-05-05T05:56:21.903Z,6.33
2019-05-05T05:58:57.084Z,6.42
2019-05-05T06:01:34.436Z,6.49
2019-05-05T06:04:09.571Z,6.58
2019-05-05T06:06:44.994Z,6.69
2019-05-05T06:09:21.484Z,6.89
2019-05-05T06:11:56.566Z,6.89
2019-05-05T06:14:33.862Z,6.91
2019-05-05T06:17:13.603Z,6.91
2019-05-05T06:19:48.653Z,6.88
2019-05-05T06:22:29.363Z,6.94
2019-05-05T06:25:00.620Z,7.00
2019-05-05T06:27:36.860Z,7.08
2019-05-05T06:30:13.801Z,7.18
2019-05-05T06:32:49.279Z,7.27
2019-05-05T06:35:24.601Z,7.39
2019-05-05T06:37:59.909Z,7.54
2019-05-05T06:40:36.610Z,7.59
2019-05-05T06:43:17.881Z,7.70
2019-05-05T06:45:57.755Z,7.77
2019-05-05T06:48:34.350Z,7.92
2019-05-05T06:51:09.825Z,8.01
2019-05-05T06:53:44.969Z,8.17
2019-05-05T06:56:20.246Z,8.25
2019-05-05T06:58:55.615Z,8.38
2019-05-05T07:01:33.757Z,8.56
2019-05-05T07:04:09.784Z,8.72
2019-05-05T07:06:54.079Z,8.98
2019-05-05T07:09:25.808Z,9.26
2019-05-05T07:12:01.243Z,9.52
2019-05-05T07:14:36.442Z,9.84
2019-05-05T07:17:13.906Z,10.18
2019-05-05T07:19:48.559Z,10.45
2019-05-05T07:22:24.435Z,10.81
2019-05-05T07:24:59.605Z,11.82
2019-05-05T07:27:34.746Z,13.05
2019-05-05T07:30:10.331Z,14.27
2019-05-05T07:32:45.580Z,15.27
2019-05-05T07:35:53.390Z,15.80
2019-05-05T07:38:16.633Z,16.75
2019-05-05T07:40:54.369Z,17.06
2019-05-05T07:43:29.298Z,17.61
2019-05-05T07:46:04.617Z,18.34
2019-05-05T07:48:40.174Z,19.24
2019-05-05T07:51:15.623Z,20.05
2019-05-05T07:53:51.018Z,20.38
2019-05-05T07:56:27.436Z,20.45
2019-05-05T07:59:03.794Z,18.91
2019-05-05T08:01:43.276Z,18.16
2019-05-05T08:04:19.688Z,18.41
2019-05-05T08:06:56.372Z,17.97
2019-05-05T08:09:33.820Z,19.06
2019-05-05T08:12:11.051Z,19.13
2019-05-05T08:14:48.257Z,18.94
2019-05-05T08:17:44.846Z,19.17
2019-05-05T08:20:28.672Z,19.55
2019-05-05T08:23:08.156Z,18.75
2019-05-05T08:25:51.256Z,18.69
2019-05-05T08:28:31.279Z,18.88
2019-05-05T08:31:14.566Z,19.43
2019-05-05T08:33:50.036Z,19.58
2019-05-05T08:36:26.330Z,19.53
2019-05-05T08:39:03.735Z,19.14
2019-05-05T08:41:40.737Z,19.50
2019-05-05T08:44:18.121Z,20.73
2019-05-05T08:46:54.284Z,21.47
2019-05-05T08:49:30.588Z,21.03
2019-05-05T08:52:07.288Z,21.63
2019-05-05T08:54:44.481Z,21.38
2019-05-05T08:57:19.931Z,20.44
2019-05-05T08:59:57.033Z,18.63
2019-05-05T09:02:36.169Z,16.99
2019-05-05T09:05:14.475Z,15.72
2019-05-05T09:07:51.015Z,16.01
2019-05-05T09:10:28.323Z,17.76
2019-05-05T09:13:04.636Z,18.78
2019-05-05T09:15:40.018Z,18.14
2019-05-05T09:18:16.670Z,18.73
2019-05-05T09:20:57.419Z,19.70
2019-05-05T09:23:34.735Z,20.68
2019-05-05T09:26:13.698Z,21.71
2019-05-05T09:29:00.168Z,21.70
2019-05-05T09:31:35.563Z,21.40
2019-05-05T09:34:16.090Z,19.52
2019-05-05T09:36:54.458Z,18.16
2019-05-05T09:39:31.608Z,18.82
2019-05-05T09:42:08.127Z,18.99
2019-05-05T09:44:45.768Z,17.03
2019-05-05T09:47:20.979Z,15.47
2019-05-05T09:49:57.263Z,14.61
2019-05-05T09:52:33.807Z,14.20
2019-05-05T09:55:09.383Z,13.86
2019-05-05T09:57:44.457Z,14.12
2019-05-05T10:00:20.939Z,14.01
2019-05-05T10:02:56.130Z,15.66
2019-05-05T10:05:31.336Z,17.83
2019-05-05T10:08:06.709Z,19.26
2019-05-05T10:10:44.058Z,18.86
2019-05-05T10:13:20.001Z,19.56
2019-05-05T10:15:56.309Z,20.59
2019-05-05T10:18:35.825Z,20.98
2019-05-05T10:21:13.927Z,21.74
2019-05-05T10:23:55.775Z,22.96
2019-05-05T10:26:31.019Z,23.50
2019-05-05T10:29:13.662Z,23.11
2019-05-05T10:31:50.138Z,21.83
2019-05-05T10:34:25.556Z,20.96
2019-05-05T10:37:04.038Z,19.99
2019-05-05T10:39:40.784Z,21.60
2019-05-05T10:42:26.101Z,23.12
2019-05-05T10:45:01.501Z,22.26
2019-05-05T10:47:39.703Z,20.20
2019-05-05T10:50:15.037Z,18.72
2019-05-05T10:52:50.306Z,17.90
2019-05-05T10:55:25.551Z,16.66
2019-05-05T10:58:05.012Z,16.37
2019-05-05T11:00:44.371Z,16.47
2019-05-05T11:03:20.347Z,16.50
2019-05-05T11:05:59.926Z,18.40
2019-05-05T11:08:35.199Z,20.07
2019-05-05T11:11:13.675Z,21.21
2019-05-05T11:13:50.188Z,20.09
2019-05-05T11:16:25.747Z,18.82
2019-05-05T11:19:04.323Z,17.33
2019-05-05T11:21:39.927Z,16.41
2019-05-05T11:24:16.089Z,15.91
2019-05-05T11:26:53.922Z,15.50
2019-05-05T11:29:29.006Z,15.10
2019-05-05T11:32:05.742Z,14.97
2019-05-05T11:34:40.995Z,14.95
2019-05-05T11:37:18.248Z,15.15
2019-05-05T11:39:56.440Z,16.31
2019-05-05T11:42:34.309Z,18.79
2019-05-05T11:45:11.396Z,19.86
2019-05-05T11:47:46.849Z,19.12
2019-05-05T11:50:23.817Z,17.91
2019-05-05T11:52:59.265Z,17.06
2019-05-05T11:55:34.468Z,16.57
2019-05-05T11:58:10.009Z,18.31
2019-05-05T12:00:45.343Z,20.31
2019-05-05T12:03:20.470Z,21.46
2019-05-05T12:05:56.326Z,20.28
2019-05-05T12:08:31.493Z,18.54
2019-05-05T12:11:08.017Z,17.96
2019-05-05T12:13:43.889Z,16.85
2019-05-05T12:16:20.896Z,16.19
2019-05-05T12:18:55.983Z,15.86
2019-05-05T12:21:33.608Z,15.86
2019-05-05T12:24:10.215Z,16.72
2019-05-05T12:26:48.141Z,18.47
2019-05-05T12:29:25.971Z,19.72
2019-05-05T12:32:02.487Z,20.15
2019-05-05T12:34:38.141Z,19.36
2019-05-05T12:37:14.241Z,18.70
2019-05-05T12:39:54.641Z,17.80
2019-05-05T12:42:30.144Z,17.19
2019-05-05T12:45:09.341Z,17.00
2019-05-05T12:48:04.563Z,16.78
2019-05-05T12:50:44.284Z,17.23
2019-05-05T12:53:20.702Z,17.91
2019-05-05T12:55:57.407Z,18.60
2019-05-05T12:58:33.558Z,19.53
2019-05-05T13:01:10.993Z,19.63
2019-05-05T13:03:46.891Z,19.59
2019-05-05T13:06:24.121Z,19.54
2019-05-05T13:08:59.508Z,20.45
2019-05-05T13:11:35.421Z,19.78
2019-05-05T13:14:10.540Z,19.78
2019-05-05T13:16:52.940Z,18.81
2019-05-05T13:19:27.785Z,17.59
2019-05-05T13:22:16.226Z,16.93
2019-05-05T13:24:56.671Z,16.33
2019-05-05T13:27:34.430Z,15.58
2019-05-05T13:30:10.952Z,17.56
2019-05-05T13:32:46.206Z,20.23
2019-05-05T13:35:24.472Z,21.89
2019-05-05T13:38:00.796Z,23.05
2019-05-05T13:40:43.905Z,23.09
2019-05-05T13:43:21.163Z,20.79
2019-05-05T13:46:09.643Z,19.22
2019-05-05T13:48:44.875Z,17.56
2019-05-05T13:51:23.963Z,16.14
2019-05-05T13:53:59.731Z,15.73
2019-05-05T13:56:35.856Z,15.36
2019-05-05T13:59:14.089Z,15.02
2019-05-05T14:01:49.434Z,14.67
2019-05-05T14:04:24.979Z,14.57
2019-05-05T14:07:00.288Z,14.34
2019-05-05T14:09:35.671Z,14.37
2019-05-05T14:12:10.844Z,14.47
2019-05-05T14:14:46.553Z,14.08
2019-05-05T14:17:21.703Z,14.17
2019-05-05T14:20:04.753Z,14.33
2019-05-05T14:22:34.520Z,14.11
2019-05-05T14:25:13.553Z,14.28
2019-05-05T14:27:54.112Z,14.55
2019-05-05T14:30:43.495Z,14.56
2019-05-05T14:33:20.007Z,14.30
2019-05-05T14:36:00.703Z,14.38
2019-05-05T14:38:38.506Z,14.52
2019-05-05T14:41:13.893Z,14.66
2019-05-05T14:43:49.429Z,14.67
2019-05-05T14:46:24.479Z,14.50
2019-05-05T14:48:59.856Z,14.32
2019-05-05T14:51:37.232Z,14.19
2019-05-05T14:54:14.620Z,14.08
2019-05-05T14:56:50.140Z,14.10
2019-05-05T14:59:25.569Z,14.09
2019-05-05T15:02:00.859Z,14.20
2019-05-05T15:04:38.731Z,14.39
2019-05-05T15:07:25.952Z,14.55
2019-05-05T15:10:04.254Z,14.40
2019-05-05T15:12:41.270Z,14.59
2019-05-05T15:15:17.692Z,14.50
2019-05-05T15:17:53.672Z,14.48
2019-05-05T15:20:29.313Z,14.28
2019-05-05T15:23:04.838Z,14.27
2019-05-05T15:25:41.059Z,14.42
2019-05-05T15:28:16.330Z,14.45
2019-05-05T15:30:54.517Z,14.55
2019-05-05T15:33:30.909Z,14.40
2019-05-05T15:36:07.120Z,14.43
2019-05-05T15:38:43.798Z,14.23
2019-05-05T15:41:19.493Z,14.08
2019-05-05T15:43:54.659Z,14.09
2019-05-05T15:46:29.749Z,14.12
2019-05-05T15:49:04.830Z,14.20
2019-05-05T15:51:41.112Z,14.24
2019-05-05T15:54:16.565Z,14.39
2019-05-05T15:57:04.886Z,14.53
2019-05-05T15:59:30.551Z,14.53
2019-05-05T16:02:06.107Z,14.50
2019-05-05T16:04:41.308Z,14.48
2019-05-05T16:07:16.638Z,14.46
2019-05-05T16:09:56.414Z,14.37
2019-05-05T16:12:36.532Z,14.30
2019-05-05T16:15:31.947Z,14.41
2019-05-05T16:18:08.934Z,14.37
2019-05-05T16:20:45.665Z,14.26
2019-05-05T16:23:35.691Z,14.27
2019-05-05T16:26:31.665Z,14.20
2019-05-05T16:29:07.940Z,14.23
2019-05-05T16:31:44.580Z,14.09
2019-05-05T16:34:19.812Z,14.00
2019-05-05T16:36:57.071Z,14.02
2019-05-05T16:39:33.593Z,13.94
2019-05-05T16:42:08.806Z,13.79
2019-05-05T16:44:46.291Z,13.67
2019-05-05T16:47:21.722Z,13.56
2019-05-05T16:49:56.955Z,13.43
2019-05-05T16:52:33.946Z,13.39
2019-05-05T16:55:18.402Z,13.38
2019-05-05T16:57:55.133Z,13.31
2019-05-05T17:00:32.039Z,13.29
2019-05-05T17:03:07.368Z,13.27
2019-05-05T17:05:44.150Z,13.16
2019-05-05T17:08:21.028Z,13.10
2019-05-05T17:10:57.346Z,13.04
2019-05-05T17:13:40.615Z,13.05
2019-05-05T17:16:23.847Z,12.96
2019-05-05T17:19:04.425Z,12.89
2019-05-05T17:21:44.587Z,12.80
2019-05-05T17:24:20.132Z,12.72
2019-05-05T17:26:55.266Z,12.62
2019-05-05T17:29:31.623Z,12.53
2019-05-05T17:32:06.721Z,12.45
2019-05-05T17:34:42.131Z,12.36
2019-05-05T17:37:18.085Z,12.28
2019-05-05T17:39:58.424Z,12.14
2019-05-05T17:42:43.978Z,12.14
2019-05-05T17:45:28.263Z,11.99
2019-05-05T17:48:08.203Z,11.99
2019-05-05T17:50:53.923Z,11.99
2019-05-05T17:53:30.908Z,11.90
2019-05-05T17:56:08.094Z,11.83
2019-05-05T17:58:44.474Z,11.77
2019-05-05T18:01:21.120Z,11.68
2019-05-05T18:03:56.317Z,11.58
2019-05-05T18:06:34.381Z,11.47
2019-05-05T18:09:18.868Z,11.37
2019-05-05T18:11:58.022Z,11.30
2019-05-05T18:14:50.291Z,11.19
2019-05-05T18:17:25.763Z,11.08
2019-05-05T18:20:01.021Z,11.02
2019-05-05T18:22:37.433Z,10.98
2019-05-05T18:25:14.979Z,10.98
2019-05-05T18:27:50.129Z,10.96
2019-05-05T18:30:25.269Z,10.93
2019-05-05T18:33:00.647Z,10.89
2019-05-05T18:35:35.747Z,10.86
2019-05-05T18:38:11.329Z,10.79
2019-05-05T18:40:47.145Z,10.76
2019-05-05T18:43:24.303Z,10.72
2019-05-05T18:46:04.718Z,10.70
2019-05-05T18:48:40.376Z,10.69
2019-05-05T18:51:15.505Z,10.68
2019-05-05T18:53:50.721Z,10.63
2019-05-05T18:56:28.003Z,10.58
2019-05-05T18:59:06.198Z,10.57
2019-05-05T19:01:54.507Z,10.57
2019-05-05T19:04:31.552Z,10.54
2019-05-05T19:07:08.614Z,10.55
2019-05-05T19:09:51.810Z,10.52
2019-05-05T19:12:21.069Z,10.52
2019-05-05T19:14:56.389Z,10.50
2019-05-05T19:17:31.833Z,10.51
2019-05-05T19:20:10.542Z,10.57
2019-05-05T19:22:46.140Z,10.58
2019-05-05T19:25:21.444Z,10.58
2019-05-05T19:27:56.668Z,10.61
2019-05-05T19:30:35.758Z,10.59
2019-05-05T19:33:13.411Z,10.59
2019-05-05T19:35:48.880Z,10.59
2019-05-05T19:38:23.998Z,10.56
2019-05-05T19:41:01.235Z,10.51
2019-05-05T19:43:38.361Z,10.47
2019-05-05T19:46:15.903Z,10.41
2019-05-05T19:48:54.054Z,10.38
2019-05-05T19:51:29.897Z,10.28
2019-05-05T19:54:05.291Z,10.14
2019-05-05T19:56:41.629Z,10.05
2019-05-05T19:59:16.795Z,9.94
2019-05-05T20:01:53.988Z,9.85
2019-05-05T20:04:29.649Z,9.75
2019-05-05T20:07:04.709Z,9.78
2019-05-05T20:09:40.114Z,9.73
2019-05-05T20:12:16.522Z,9.62
2019-05-05T20:14:54.240Z,9.63
2019-05-05T20:17:35.062Z,9.60
2019-05-05T20:20:10.599Z,9.59
2019-05-05T20:22:45.656Z,9.56
2019-05-05T20:25:20.696Z,9.53
2019-05-05T20:27:57.711Z,9.50
2019-05-05T20:30:34.249Z,9.48
2019-05-05T20:33:14.558Z,9.43
2019-05-05T20:35:53.732Z,9.55
2019-05-05T20:38:37.157Z,9.62
2019-05-05T20:41:29.959Z,9.53
2019-05-05T20:44:06.025Z,9.50
2019-05-05T20:46:41.326Z,9.58
2019-05-05T20:49:16.424Z,9.60
2019-05-05T20:51:51.473Z,9.57
2019-05-05T20:54:26.707Z,9.55
2019-05-05T20:57:01.767Z,9.50
2019-05-05T20:59:37.896Z,9.45
2019-05-05T21:02:13.705Z,9.44
2019-05-05T21:04:48.888Z,9.42
2019-05-05T21:07:26.489Z,9.46
2019-05-05T21:10:01.387Z,9.49
2019-05-05T21:12:42.636Z,9.53
2019-05-05T21:15:16.520Z,9.59
2019-05-05T21:17:54.134Z,9.67
2019-05-05T21:20:29.619Z,9.73
2019-05-05T21:23:17.789Z,9.76
2019-05-05T21:25:55.921Z,9.74
2019-05-05T21:28:33.679Z,9.76
2019-05-05T21:31:09.229Z,9.75
2019-05-05T21:33:45.241Z,9.81
2019-05-05T21:36:20.728Z,9.80
2019-05-05T21:38:56.533Z,9.82
2019-05-05T21:41:33.829Z,9.83
2019-05-05T21:44:08.582Z,9.85
2019-05-05T21:46:45.262Z,9.87
2019-05-05T21:49:20.642Z,9.89
2019-05-05T21:51:57.346Z,9.90
2019-05-05T21:54:40.565Z,9.91
2019-05-05T21:57:17.279Z,9.90
2019-05-05T21:59:57.865Z,9.87
2019-05-05T22:02:29.343Z,9.82
2019-05-05T22:05:06.507Z,9.77
2019-05-05T22:07:42.080Z,9.69
2019-05-05T22:10:17.189Z,9.59
2019-05-05T22:12:54.266Z,9.51
2019-05-05T22:15:29.489Z,9.42
2019-05-05T22:18:06.241Z,9.33
2019-05-05T22:20:46.041Z,9.23
2019-05-05T22:23:21.349Z,9.13
2019-05-05T22:25:56.400Z,9.04
2019-05-05T22:28:33.651Z,8.95
2019-05-05T22:31:08.489Z,8.90
2019-05-05T22:33:44.724Z,8.83
2019-05-05T22:36:21.282Z,8.81
2019-05-05T22:38:57.409Z,8.80
2019-05-05T22:41:33.741Z,8.77
2019-05-05T22:44:09.050Z,8.74
2019-05-05T22:46:44.733Z,8.71
2019-05-05T22:49:19.926Z,8.67
2019-05-05T22:51:55.014Z,8.63
2019-05-05T22:54:30.216Z,8.58
2019-05-05T22:57:05.299Z,8.52
2019-05-05T22:59:40.502Z,8.46
2019-05-05T23:02:17.439Z,8.42
2019-05-05T23:05:10.628Z,8.37
2019-05-05T23:07:46.064Z,8.30
2019-05-05T23:10:23.441Z,8.17
2019-05-05T23:12:58.130Z,8.17
2019-05-05T23:15:35.176Z,8.20
2019-05-05T23:18:11.902Z,8.17
2019-05-05T23:21:10.784Z,8.12
2019-05-05T23:24:00.689Z,8.05
2019-05-05T23:26:37.520Z,8.00
2019-05-05T23:29:12.933Z,7.95
2019-05-05T23:31:48.197Z,7.91
2019-05-05T23:34:24.319Z,7.84
2019-05-05T23:36:59.797Z,7.80
2019-05-05T23:39:35.172Z,7.76
2019-05-05T23:42:10.681Z,7.75
2019-05-05T23:44:47.755Z,7.68
2019-05-05T23:47:24.794Z,7.66
2019-05-05T23:50:00.087Z,7.60
2019-05-05T23:52:36.122Z,7.58
2019-05-05T23:55:11.422Z,7.56
2019-05-05T23:57:48.670Z,7.54
